Main page
METAR-TAF:

METAR-TAF

Airports :

Monte Cimone, Italy

latitude: 44-12N, longitude: 010-42E, elevation: 2165 m

Current weather observation

The report was made 29 minutes ago, at 13:55 UTC
Wind 6 kt from the North/Northeast
Temperature 12°C
Humidity 76%
Pressure 1030 hPa
Visibility 10 km or more
Scattered clouds at a height of 300 ft

METAR: LIVC 281355Z 03006KT 9999 SCT003 12/08 Q1030 RMK SCT MON LIB VAL NIL VIS MIN 9999

Time: 16:24 (14:24 UTC)


TAF: missing

Weather observations and forecasts of more than 4000 airports (METAR and TAF reports).

The available stations are represented by yellow and red dots on the map.

Hover mouse over dot to see the name of the station.

Then click to see weather observations and forecasts.

To change the map : click on the green buttons with a black cross to zoom in, on the green button with a dash to zoom out, or on the green arrows for adjacent maps.


METAR-TAF: